createdAt,value
2017-12-14T00:00:02.202Z,8.93
2017-12-14T00:01:02.117Z,8.87
2017-12-14T00:02:02.023Z,8.87
2017-12-14T00:03:01.940Z,8.78
2017-12-14T00:04:01.842Z,8.84
2017-12-14T00:05:01.758Z,8.81
2017-12-14T00:06:01.664Z,8.86
2017-12-14T00:07:01.575Z,8.88
2017-12-14T00:08:01.487Z,8.88
2017-12-14T00:09:01.417Z,8.86
2017-12-14T00:10:01.315Z,8.87
2017-12-14T00:11:01.229Z,8.87
2017-12-14T00:12:01.181Z,8.91
2017-12-14T00:13:01.048Z,8.84
2017-12-14T00:14:00.964Z,8.83
2017-12-14T00:15:00.875Z,8.83
2017-12-14T00:16:00.786Z,8.84
2017-12-14T00:17:00.692Z,8.81
2017-12-14T00:18:00.610Z,8.91
2017-12-14T00:19:00.516Z,8.86
2017-12-14T00:20:00.431Z,8.84
2017-12-14T00:21:00.676Z,8.83
2017-12-14T00:22:00.260Z,8.87
2017-12-14T00:23:00.167Z,8.90
2017-12-14T00:24:00.078Z,8.78
2017-12-14T00:24:59.996Z,8.88
2017-12-14T00:25:59.907Z,8.79
2017-12-14T00:26:59.812Z,8.90
2017-12-14T00:27:59.729Z,8.83
2017-12-14T00:28:59.637Z,8.91
2017-12-14T00:29:59.551Z,8.90
2017-12-14T00:30:59.472Z,8.84
2017-12-14T00:31:59.370Z,8.88
2017-12-14T00:32:59.283Z,8.96
2017-12-14T00:33:59.195Z,8.96
2017-12-14T00:34:59.114Z,8.88
2017-12-14T00:35:59.023Z,8.83
2017-12-14T00:36:58.943Z,8.84
2017-12-14T00:37:58.858Z,8.79
2017-12-14T00:38:58.758Z,8.86
2017-12-14T00:39:58.676Z,8.86
2017-12-14T00:40:58.586Z,8.79
2017-12-14T00:41:58.507Z,8.87
2017-12-14T00:42:58.418Z,8.78
2017-12-14T00:43:58.321Z,8.90
2017-12-14T00:44:58.233Z,8.78
2017-12-14T00:45:58.147Z,8.75
2017-12-14T00:46:58.061Z,8.81
2017-12-14T00:47:57.970Z,8.76
2017-12-14T00:48:57.882Z,8.79
2017-12-14T00:49:57.793Z,8.78
2017-12-14T00:50:57.719Z,8.83
2017-12-14T00:51:57.626Z,8.69
2017-12-14T00:52:57.531Z,8.73
2017-12-14T00:53:57.443Z,8.78
2017-12-14T00:54:57.369Z,8.72
2017-12-14T00:55:57.269Z,8.81
2017-12-14T00:56:57.190Z,8.86
2017-12-14T00:57:57.093Z,8.87
2017-12-14T00:58:57.001Z,8.83
2017-12-14T00:59:56.921Z,8.90
2017-12-14T01:00:56.835Z,8.84
2017-12-14T01:01:56.743Z,8.76
2017-12-14T01:02:56.670Z,8.83
2017-12-14T01:03:56.573Z,8.90
2017-12-14T01:04:56.483Z,8.76
2017-12-14T01:05:56.397Z,8.78
2017-12-14T01:06:56.307Z,8.84
2017-12-14T01:07:56.214Z,8.86
2017-12-14T01:08:56.127Z,8.83
2017-12-14T01:09:56.045Z,8.79
2017-12-14T01:10:55.958Z,8.84
2017-12-14T01:11:55.861Z,8.88
2017-12-14T01:12:55.775Z,8.81
2017-12-14T01:13:55.688Z,8.76
2017-12-14T01:14:55.599Z,8.84
2017-12-14T01:15:55.514Z,8.76
2017-12-14T01:16:55.436Z,8.81
2017-12-14T01:17:55.340Z,8.87
2017-12-14T01:18:55.255Z,8.79
2017-12-14T01:19:55.271Z,8.83
2017-12-14T01:20:55.071Z,8.90
2017-12-14T01:21:54.986Z,8.90
2017-12-14T01:22:55.103Z,8.79
2017-12-14T01:23:54.812Z,8.83
2017-12-14T01:24:54.723Z,8.81
2017-12-14T01:25:54.637Z,8.87
2017-12-14T01:26:54.549Z,8.81
2017-12-14T01:27:54.459Z,8.87
2017-12-14T01:28:54.383Z,8.91
2017-12-14T01:29:54.298Z,8.87
2017-12-14T01:30:54.198Z,8.86
2017-12-14T01:31:54.176Z,8.93
2017-12-14T01:32:54.018Z,8.81
2017-12-14T01:33:53.931Z,8.87
2017-12-14T01:34:53.842Z,8.96
2017-12-14T01:35:53.763Z,8.87
2017-12-14T01:36:53.672Z,8.96
2017-12-14T01:37:53.585Z,9.02
2017-12-14T01:38:53.503Z,8.90
2017-12-14T01:39:53.411Z,8.90
2017-12-14T01:40:53.330Z,8.97
2017-12-14T01:41:53.225Z,8.90
2017-12-14T01:42:53.150Z,8.99
2017-12-14T01:43:53.056Z,8.94
2017-12-14T01:44:52.973Z,8.93
2017-12-14T01:45:52.885Z,8.93
2017-12-14T01:46:52.798Z,8.86
2017-12-14T01:47:52.716Z,8.96
2017-12-14T01:48:52.619Z,8.88
2017-12-14T01:49:52.525Z,8.93
2017-12-14T01:50:52.439Z,8.94
2017-12-14T01:51:52.366Z,8.97
2017-12-14T01:52:52.276Z,8.99
2017-12-14T01:53:52.179Z,8.93
2017-12-14T01:54:52.104Z,8.99
2017-12-14T01:55:52.018Z,8.97
2017-12-14T01:56:51.914Z,8.97
2017-12-14T01:57:51.826Z,8.96
2017-12-14T01:58:51.736Z,9.02
2017-12-14T01:59:51.658Z,8.99
2017-12-14T02:00:51.568Z,8.97
2017-12-14T02:01:51.496Z,9.04
2017-12-14T02:02:51.404Z,8.96
2017-12-14T02:03:51.307Z,8.94
2017-12-14T02:04:51.222Z,8.94
2017-12-14T02:05:51.134Z,8.99
2017-12-14T02:06:51.036Z,8.99
2017-12-14T02:07:50.964Z,8.94
2017-12-14T02:08:50.875Z,9.01
2017-12-14T02:09:50.782Z,8.96
2017-12-14T02:10:50.702Z,8.99
2017-12-14T02:11:50.605Z,9.05
2017-12-14T02:12:50.520Z,9.09
2017-12-14T02:13:50.430Z,8.93
2017-12-14T02:14:50.347Z,9.02
2017-12-14T02:15:50.260Z,9.06
2017-12-14T02:16:50.173Z,9.01
2017-12-14T02:17:50.082Z,9.02
2017-12-14T02:18:49.993Z,9.06
2017-12-14T02:19:49.909Z,9.09
2017-12-14T02:20:49.822Z,8.97
2017-12-14T02:21:49.729Z,9.04
2017-12-14T02:22:49.642Z,8.96
2017-12-14T02:23:49.557Z,8.99
2017-12-14T02:24:49.473Z,8.91
2017-12-14T02:25:49.387Z,8.99
2017-12-14T02:26:49.290Z,8.91
2017-12-14T02:27:49.205Z,8.97
2017-12-14T02:28:49.123Z,8.97
2017-12-14T02:29:49.030Z,9.01
2017-12-14T02:30:48.940Z,8.97
2017-12-14T02:31:48.856Z,8.93
2017-12-14T02:32:48.774Z,8.81
2017-12-14T02:33:48.680Z,9.04
2017-12-14T02:34:48.593Z,8.99
2017-12-14T02:35:48.507Z,8.99
2017-12-14T02:36:48.419Z,8.91
2017-12-14T02:37:48.336Z,9.01
2017-12-14T02:38:48.245Z,8.96
2017-12-14T02:39:48.158Z,8.87
2017-12-14T02:40:48.075Z,8.96
2017-12-14T02:41:47.986Z,9.04
2017-12-14T02:42:47.897Z,8.96
2017-12-14T02:43:47.806Z,9.04
2017-12-14T02:44:47.716Z,9.05
2017-12-14T02:45:47.629Z,9.06
2017-12-14T02:46:47.546Z,8.90
2017-12-14T02:47:47.477Z,8.97
2017-12-14T02:48:48.150Z,8.97
2017-12-14T02:49:47.292Z,9.01
2017-12-14T02:50:47.196Z,9.01
2017-12-14T02:51:47.108Z,8.99
2017-12-14T02:52:47.026Z,9.02
2017-12-14T02:53:46.936Z,9.09
2017-12-14T02:54:46.854Z,9.02
2017-12-14T02:55:46.763Z,8.96
2017-12-14T02:56:46.675Z,9.01
2017-12-14T02:57:46.589Z,9.01
2017-12-14T02:58:46.501Z,8.97
2017-12-14T02:59:46.412Z,8.99
2017-12-14T03:00:46.332Z,8.93
2017-12-14T03:01:46.256Z,9.05
2017-12-14T03:02:46.160Z,8.99
2017-12-14T03:03:46.081Z,9.01
2017-12-14T03:04:45.980Z,9.06
2017-12-14T03:05:45.898Z,9.05
2017-12-14T03:06:45.802Z,9.05
2017-12-14T03:07:45.714Z,8.93
2017-12-14T03:08:45.628Z,9.05
2017-12-14T03:09:45.536Z,9.05
2017-12-14T03:10:45.450Z,9.04
2017-12-14T03:11:45.370Z,9.10
2017-12-14T03:12:45.277Z,9.09
2017-12-14T03:13:45.191Z,9.16
2017-12-14T03:14:45.096Z,9.15
2017-12-14T03:15:45.015Z,9.06
2017-12-14T03:16:44.923Z,9.10
2017-12-14T03:17:44.832Z,9.16
2017-12-14T03:18:44.753Z,9.06
2017-12-14T03:19:44.669Z,9.05
2017-12-14T03:20:44.573Z,9.01
2017-12-14T03:21:44.499Z,9.09
2017-12-14T03:22:44.406Z,9.06
2017-12-14T03:23:44.328Z,9.12
2017-12-14T03:24:44.233Z,9.06
2017-12-14T03:25:44.142Z,9.04
2017-12-14T03:26:44.049Z,9.09
2017-12-14T03:27:43.955Z,9.09
2017-12-14T03:28:43.879Z,9.12
2017-12-14T03:29:43.779Z,9.04
2017-12-14T03:30:43.693Z,9.10
2017-12-14T03:31:43.612Z,8.96
2017-12-14T03:32:43.516Z,9.15
2017-12-14T03:33:43.431Z,9.12
2017-12-14T03:34:43.346Z,9.04
2017-12-14T03:35:43.253Z,8.99
2017-12-14T03:36:43.167Z,8.97
2017-12-14T03:37:43.083Z,9.02
2017-12-14T03:38:42.998Z,9.05
2017-12-14T03:39:42.907Z,9.05
2017-12-14T03:40:42.812Z,9.01
2017-12-14T03:41:42.733Z,8.99
2017-12-14T03:42:42.644Z,9.04
2017-12-14T03:43:42.560Z,8.99
2017-12-14T03:44:42.470Z,9.06
2017-12-14T03:45:42.377Z,9.10
2017-12-14T03:46:42.288Z,9.04
2017-12-14T03:47:42.741Z,9.06
2017-12-14T03:48:42.117Z,9.02
2017-12-14T03:49:42.014Z,8.73
2017-12-14T03:50:41.924Z,8.51
2017-12-14T03:51:41.848Z,8.28
2017-12-14T03:52:41.756Z,8.20
2017-12-14T03:53:41.662Z,8.17
2017-12-14T03:54:41.571Z,8.20
2017-12-14T03:55:41.489Z,8.30
2017-12-14T03:56:41.398Z,8.30
2017-12-14T03:57:41.309Z,8.33
2017-12-14T03:58:41.224Z,8.29
2017-12-14T03:59:41.142Z,8.33
2017-12-14T04:00:41.041Z,8.29
2017-12-14T04:01:40.960Z,8.29
2017-12-14T04:02:40.854Z,8.35
2017-12-14T04:03:40.768Z,8.25
2017-12-14T04:04:40.675Z,8.21
2017-12-14T04:05:40.582Z,8.26
2017-12-14T04:06:40.499Z,8.35
2017-12-14T04:07:40.417Z,8.44
2017-12-14T04:08:40.320Z,8.42
2017-12-14T04:09:40.231Z,8.50
2017-12-14T04:10:40.144Z,8.54
2017-12-14T04:11:40.056Z,8.45
2017-12-14T04:12:39.964Z,8.48
2017-12-14T04:13:39.887Z,8.47
2017-12-14T04:14:39.807Z,8.47
2017-12-14T04:15:39.713Z,8.28
2017-12-14T04:16:39.617Z,8.30
2017-12-14T04:17:39.523Z,8.36
2017-12-14T04:18:39.437Z,8.40
2017-12-14T04:19:39.358Z,8.33
2017-12-14T04:20:39.269Z,8.30
2017-12-14T04:21:39.173Z,8.36
2017-12-14T04:22:39.081Z,8.47
2017-12-14T04:23:38.997Z,8.50
2017-12-14T04:24:38.935Z,8.36
2017-12-14T04:25:38.821Z,8.48
2017-12-14T04:26:38.736Z,8.30
2017-12-14T04:27:38.656Z,8.29
2017-12-14T04:28:38.559Z,8.36
2017-12-14T04:29:38.469Z,8.30
2017-12-14T04:30:38.380Z,8.48
2017-12-14T04:31:38.294Z,8.25
2017-12-14T04:32:38.209Z,8.29
2017-12-14T04:33:38.126Z,8.29
2017-12-14T04:34:38.035Z,8.26
2017-12-14T04:35:37.936Z,8.30
2017-12-14T04:36:37.856Z,8.35
2017-12-14T04:37:37.780Z,8.29
2017-12-14T04:38:37.678Z,8.29
2017-12-14T04:39:37.601Z,8.22
2017-12-14T04:40:37.507Z,8.17
2017-12-14T04:41:37.422Z,8.29
2017-12-14T04:42:37.319Z,8.25
2017-12-14T04:43:37.240Z,8.29
2017-12-14T04:44:37.142Z,8.22
2017-12-14T04:45:37.053Z,8.26
2017-12-14T04:46:37.299Z,8.22
2017-12-14T04:47:36.884Z,8.12
2017-12-14T04:48:36.792Z,8.22
2017-12-14T04:49:36.696Z,8.11
2017-12-14T04:50:36.610Z,8.20
2017-12-14T04:51:36.526Z,8.22
2017-12-14T04:52:36.457Z,8.18
2017-12-14T04:53:36.358Z,8.22
2017-12-14T04:54:36.256Z,8.20
2017-12-14T04:55:36.165Z,8.17
2017-12-14T04:56:36.074Z,8.22
2017-12-14T04:57:35.984Z,8.28
2017-12-14T04:58:35.900Z,8.14
2017-12-14T04:59:35.801Z,8.12
2017-12-14T05:00:35.731Z,8.17
2017-12-14T05:01:35.623Z,8.12
2017-12-14T05:02:35.538Z,8.20
2017-12-14T05:03:35.449Z,8.08
2017-12-14T05:04:35.380Z,8.07
2017-12-14T05:05:35.265Z,8.17
2017-12-14T05:06:35.180Z,8.04
2017-12-14T05:07:35.105Z,7.81
2017-12-14T05:08:35.002Z,7.96
2017-12-14T05:09:34.922Z,8.02
2017-12-14T05:10:34.833Z,8.04
2017-12-14T05:11:34.738Z,7.90
2017-12-14T05:12:34.648Z,7.90
2017-12-14T05:13:34.559Z,7.78
2017-12-14T05:14:34.471Z,7.85
2017-12-14T05:15:34.378Z,7.77
2017-12-14T05:16:34.290Z,7.89
2017-12-14T05:17:34.199Z,7.89
2017-12-14T05:18:34.187Z,7.87
2017-12-14T05:19:34.026Z,7.82
2017-12-14T05:20:33.931Z,7.82
2017-12-14T05:21:33.837Z,7.89
2017-12-14T05:22:33.759Z,7.69
2017-12-14T05:23:33.661Z,7.78
2017-12-14T05:24:33.593Z,7.79
2017-12-14T05:25:33.489Z,7.82
2017-12-14T05:26:33.394Z,7.78
2017-12-14T05:27:33.318Z,7.79
2017-12-14T05:28:33.230Z,7.87
2017-12-14T05:29:33.132Z,7.92
2017-12-14T05:30:33.052Z,7.87
2017-12-14T05:31:32.952Z,7.90
2017-12-14T05:32:32.863Z,7.85
2017-12-14T05:33:32.789Z,7.87
2017-12-14T05:34:32.686Z,7.92
2017-12-14T05:35:32.597Z,7.85
2017-12-14T05:36:32.504Z,7.85
2017-12-14T05:37:32.417Z,7.89
2017-12-14T05:38:32.334Z,7.79
2017-12-14T05:39:32.256Z,7.71
2017-12-14T05:40:32.152Z,7.67
2017-12-14T05:41:32.058Z,7.60
2017-12-14T05:42:31.979Z,7.67
2017-12-14T05:43:31.887Z,7.44
2017-12-14T05:44:31.794Z,7.53
2017-12-14T05:45:31.882Z,7.66
2017-12-14T05:46:31.622Z,7.60
2017-12-14T05:47:31.535Z,7.62
2017-12-14T05:48:31.436Z,7.55
2017-12-14T05:49:31.359Z,7.63
2017-12-14T05:50:31.263Z,7.67
2017-12-14T05:51:31.168Z,7.53
2017-12-14T05:52:31.087Z,7.55
2017-12-14T05:53:30.995Z,7.56
2017-12-14T05:54:30.901Z,7.55
2017-12-14T05:55:30.814Z,7.67
2017-12-14T05:56:30.726Z,7.67
2017-12-14T05:57:30.639Z,7.56
2017-12-14T05:58:30.544Z,7.67
2017-12-14T05:59:30.455Z,7.59
2017-12-14T06:00:30.376Z,7.60
2017-12-14T06:01:30.271Z,7.41
2017-12-14T06:02:30.192Z,7.59
2017-12-14T06:03:30.101Z,7.53
2017-12-14T06:04:30.022Z,7.50
2017-12-14T06:05:29.919Z,7.55
2017-12-14T06:06:29.831Z,7.58
2017-12-14T06:07:29.743Z,7.56
2017-12-14T06:08:29.649Z,7.58
2017-12-14T06:09:29.570Z,7.44
2017-12-14T06:10:29.476Z,7.56
2017-12-14T06:11:29.384Z,7.45
2017-12-14T06:12:29.295Z,7.42
2017-12-14T06:13:29.216Z,7.47
2017-12-14T06:14:29.125Z,7.49
2017-12-14T06:15:29.029Z,7.26
2017-12-14T06:16:28.938Z,7.38
2017-12-14T06:17:28.845Z,7.34
2017-12-14T06:18:28.762Z,7.50
2017-12-14T06:19:28.714Z,7.49
2017-12-14T06:20:28.589Z,7.32
2017-12-14T06:21:28.519Z,7.38
2017-12-14T06:22:28.402Z,7.49
2017-12-14T06:23:28.328Z,7.49
2017-12-14T06:24:28.222Z,7.52
2017-12-14T06:25:28.137Z,7.44
2017-12-14T06:26:28.047Z,7.35
2017-12-14T06:27:27.964Z,7.42
2017-12-14T06:28:27.888Z,7.38
2017-12-14T06:29:27.778Z,7.34
2017-12-14T06:30:27.684Z,7.22
2017-12-14T06:31:27.602Z,7.19
2017-12-14T06:32:27.514Z,7.24
2017-12-14T06:33:27.420Z,7.34
2017-12-14T06:34:27.327Z,7.35
2017-12-14T06:35:27.240Z,7.40
2017-12-14T06:36:27.153Z,7.37
2017-12-14T06:37:27.075Z,7.38
2017-12-14T06:38:26.975Z,7.34
2017-12-14T06:39:26.895Z,7.41
2017-12-14T06:40:26.803Z,7.45
2017-12-14T06:41:26.701Z,7.41
2017-12-14T06:42:26.612Z,7.47
2017-12-14T06:43:26.525Z,7.29
2017-12-14T06:44:26.464Z,7.37
2017-12-14T06:45:26.344Z,7.29
2017-12-14T06:46:26.257Z,7.19
2017-12-14T06:47:26.169Z,7.34
2017-12-14T06:48:26.079Z,7.31
2017-12-14T06:49:25.990Z,7.24
2017-12-14T06:50:25.897Z,7.26
2017-12-14T06:51:25.822Z,7.24
2017-12-14T06:52:25.726Z,7.19
2017-12-14T06:53:25.633Z,7.24
2017-12-14T06:54:25.547Z,7.22
2017-12-14T06:55:25.453Z,7.32
2017-12-14T06:56:25.370Z,7.23
2017-12-14T06:57:25.274Z,7.26
2017-12-14T06:58:25.180Z,7.20
2017-12-14T06:59:25.098Z,7.29
2017-12-14T07:00:25.005Z,7.20
2017-12-14T07:01:24.925Z,7.19
2017-12-14T07:02:24.826Z,7.20
2017-12-14T07:03:24.739Z,7.26
2017-12-14T07:04:24.649Z,7.16
2017-12-14T07:05:24.562Z,7.20
2017-12-14T07:06:24.470Z,7.15
2017-12-14T07:07:24.387Z,7.17
2017-12-14T07:08:24.291Z,7.15
2017-12-14T07:09:24.211Z,7.31
2017-12-14T07:10:24.129Z,7.32
2017-12-14T07:11:24.029Z,7.32
2017-12-14T07:12:23.939Z,7.13
2017-12-14T07:13:23.842Z,7.12
2017-12-14T07:14:23.756Z,7.24
2017-12-14T07:15:23.666Z,7.23
2017-12-14T07:16:23.572Z,7.22
2017-12-14T07:17:23.483Z,7.27
2017-12-14T07:18:23.415Z,7.35
2017-12-14T07:19:23.312Z,7.37
2017-12-14T07:20:23.229Z,7.40
2017-12-14T07:21:23.134Z,7.29
2017-12-14T07:22:23.047Z,7.23
2017-12-14T07:23:22.949Z,7.32
2017-12-14T07:24:22.876Z,7.35
2017-12-14T07:25:22.772Z,7.26
2017-12-14T07:26:22.685Z,7.34
2017-12-14T07:27:22.600Z,7.24
2017-12-14T07:28:22.505Z,7.08
2017-12-14T07:29:22.414Z,7.19
2017-12-14T07:30:22.325Z,7.05
2017-12-14T07:31:22.236Z,7.23
2017-12-14T07:32:22.152Z,7.13
2017-12-14T07:33:22.067Z,7.31
2017-12-14T07:34:21.992Z,7.22
2017-12-14T07:35:21.881Z,7.32
2017-12-14T07:36:21.797Z,7.15
2017-12-14T07:37:21.697Z,7.17
2017-12-14T07:38:21.617Z,7.20
2017-12-14T07:39:21.528Z,7.29
2017-12-14T07:40:21.433Z,7.35
2017-12-14T07:41:21.339Z,7.17
2017-12-14T07:42:21.260Z,7.26
2017-12-14T07:43:21.177Z,7.27
2017-12-14T07:44:21.076Z,7.27
2017-12-14T07:45:20.987Z,7.24
2017-12-14T07:46:20.900Z,7.22
2017-12-14T07:47:20.802Z,7.32
2017-12-14T07:48:20.718Z,7.22
2017-12-14T07:49:20.625Z,7.29
2017-12-14T07:50:20.535Z,7.23
2017-12-14T07:51:20.450Z,7.34
2017-12-14T07:52:20.357Z,7.27
2017-12-14T07:53:20.282Z,7.22
2017-12-14T07:54:20.191Z,7.31
2017-12-14T07:55:20.104Z,7.24
2017-12-14T07:56:20.008Z,7.34
2017-12-14T07:57:19.920Z,7.35
2017-12-14T07:58:19.831Z,7.29
2017-12-14T07:59:19.737Z,7.27
2017-12-14T08:00:19.680Z,7.32
2017-12-14T08:01:19.568Z,7.04
2017-12-14T08:02:19.470Z,7.20
2017-12-14T08:03:19.385Z,7.20
2017-12-14T08:04:19.297Z,7.16
2017-12-14T08:05:19.235Z,7.26
2017-12-14T08:06:19.112Z,7.32
2017-12-14T08:07:19.032Z,7.40
2017-12-14T08:08:18.941Z,7.34
2017-12-14T08:09:18.862Z,7.15
2017-12-14T08:10:18.753Z,7.15
2017-12-14T08:11:18.676Z,7.15
2017-12-14T08:12:18.579Z,7.24
2017-12-14T08:13:19.363Z,7.20
2017-12-14T08:14:18.397Z,7.22
2017-12-14T08:15:18.305Z,7.16
2017-12-14T08:16:18.216Z,7.23
2017-12-14T08:17:18.122Z,7.19
2017-12-14T08:18:18.039Z,7.26
2017-12-14T08:19:17.944Z,7.23
2017-12-14T08:20:17.864Z,7.20
2017-12-14T08:21:17.767Z,7.23
2017-12-14T08:22:17.680Z,7.34
2017-12-14T08:23:17.585Z,7.29
2017-12-14T08:24:17.499Z,7.49
2017-12-14T08:25:17.410Z,7.38
2017-12-14T08:26:17.354Z,7.35
2017-12-14T08:27:17.238Z,7.40
2017-12-14T08:28:17.141Z,7.34
2017-12-14T08:29:17.107Z,7.32
2017-12-14T08:30:16.964Z,7.32
2017-12-14T08:31:16.874Z,7.31
2017-12-14T08:32:16.783Z,7.31
2017-12-14T08:33:16.706Z,7.41
2017-12-14T08:34:16.600Z,7.50
2017-12-14T08:35:16.512Z,7.40
2017-12-14T08:36:16.426Z,7.37
2017-12-14T08:37:16.332Z,7.35
2017-12-14T08:38:16.253Z,7.52
2017-12-14T08:39:16.155Z,7.44
2017-12-14T08:40:16.071Z,7.62
2017-12-14T08:41:15.985Z,7.50
2017-12-14T08:42:15.906Z,7.67
2017-12-14T08:43:15.800Z,7.72
2017-12-14T08:44:15.795Z,7.99
2017-12-14T08:45:15.709Z,7.96
2017-12-14T08:46:15.554Z,7.81
2017-12-14T08:47:15.450Z,7.62
2017-12-14T08:48:15.449Z,7.66
2017-12-14T08:49:15.281Z,7.63
2017-12-14T08:50:15.180Z,7.69
2017-12-14T08:51:15.096Z,7.63
2017-12-14T08:52:15.008Z,7.63
2017-12-14T08:53:14.906Z,7.77
2017-12-14T08:54:14.831Z,7.71
2017-12-14T08:55:14.751Z,7.69
2017-12-14T08:56:14.649Z,7.62
2017-12-14T08:57:14.571Z,7.62
2017-12-14T08:58:14.474Z,7.56
2017-12-14T08:59:14.456Z,7.69
2017-12-14T09:00:14.292Z,7.66
2017-12-14T09:01:14.201Z,7.58
2017-12-14T09:02:14.128Z,7.56
2017-12-14T09:03:14.019Z,7.67
2017-12-14T09:04:13.965Z,7.63
2017-12-14T09:05:13.842Z,7.58
2017-12-14T09:06:13.749Z,7.72
2017-12-14T09:07:13.660Z,7.82
2017-12-14T09:08:13.572Z,7.75
2017-12-14T09:09:13.482Z,7.47
2017-12-14T09:10:13.397Z,7.52
2017-12-14T09:11:13.307Z,7.55
2017-12-14T09:12:13.946Z,7.53
2017-12-14T09:13:13.128Z,7.52
2017-12-14T09:14:13.033Z,7.55
2017-12-14T09:15:12.958Z,7.53
2017-12-14T09:16:12.855Z,7.56
2017-12-14T09:17:12.795Z,7.53
2017-12-14T09:18:12.682Z,7.62
2017-12-14T09:19:12.585Z,7.77
2017-12-14T09:20:12.501Z,7.89
2017-12-14T09:21:12.407Z,7.77
2017-12-14T09:22:12.327Z,7.77
2017-12-14T09:23:12.240Z,7.89
2017-12-14T09:24:12.142Z,7.99
2017-12-14T09:25:12.058Z,8.07
2017-12-14T09:26:11.965Z,8.17
2017-12-14T09:27:11.877Z,8.25
2017-12-14T09:28:11.785Z,8.35
2017-12-14T09:29:11.692Z,8.20
2017-12-14T09:30:11.606Z,8.22
2017-12-14T09:31:11.532Z,8.63
2017-12-14T09:32:11.439Z,9.10
2017-12-14T09:33:11.348Z,9.78
2017-12-14T09:34:11.278Z,10.34
2017-12-14T09:35:11.171Z,10.47
2017-12-14T09:36:11.082Z,10.10
2017-12-14T09:37:10.990Z,10.56
2017-12-14T09:38:10.904Z,10.84
2017-12-14T09:39:10.818Z,10.73
2017-12-14T09:40:10.767Z,10.62
2017-12-14T09:41:10.651Z,11.16
2017-12-14T09:42:10.556Z,11.25
2017-12-14T09:43:10.484Z,11.19
2017-12-14T09:44:10.391Z,11.06
2017-12-14T09:45:10.304Z,11.34
2017-12-14T09:46:10.232Z,11.64
2017-12-14T09:47:10.140Z,12.06
2017-12-14T09:48:10.066Z,12.19
2017-12-14T09:49:09.969Z,12.30
2017-12-14T09:50:09.904Z,11.94
2017-12-14T09:51:09.802Z,12.27
2017-12-14T09:52:09.715Z,12.59
2017-12-14T09:53:09.630Z,12.79
2017-12-14T09:54:09.551Z,12.52
2017-12-14T09:55:09.466Z,12.69
2017-12-14T09:56:09.382Z,12.29
2017-12-14T09:57:09.300Z,12.54
2017-12-14T09:58:09.227Z,12.16
2017-12-14T09:59:09.132Z,12.31
2017-12-14T10:00:09.047Z,12.45
2017-12-14T10:01:08.963Z,12.92
2017-12-14T10:02:08.881Z,13.04
2017-12-14T10:03:08.798Z,13.21
2017-12-14T10:04:08.723Z,13.06
2017-12-14T10:05:08.633Z,13.17
2017-12-14T10:06:08.549Z,13.11
2017-12-14T10:07:08.468Z,13.07
2017-12-14T10:08:08.389Z,13.17
2017-12-14T10:09:08.293Z,13.12
2017-12-14T10:10:08.215Z,13.43
2017-12-14T10:11:08.523Z,13.67
2017-12-14T10:12:08.052Z,13.67
2017-12-14T10:13:07.974Z,13.33
2017-12-14T10:14:07.915Z,13.59
2017-12-14T10:15:07.811Z,13.55
2017-12-14T10:16:07.722Z,13.38
2017-12-14T10:17:07.646Z,12.88
2017-12-14T10:18:07.564Z,12.84
2017-12-14T10:19:07.482Z,13.03
2017-12-14T10:20:07.389Z,13.58
2017-12-14T10:21:07.321Z,13.69
2017-12-14T10:22:07.226Z,13.91
2017-12-14T10:23:07.146Z,13.89
2017-12-14T10:24:07.063Z,13.69
2017-12-14T10:25:06.982Z,13.58
2017-12-14T10:26:06.920Z,13.09
2017-12-14T10:27:06.817Z,12.96
2017-12-14T10:28:06.735Z,12.54
2017-12-14T10:29:06.658Z,12.69
2017-12-14T10:30:06.570Z,11.96
2017-12-14T10:31:06.481Z,11.86
2017-12-14T10:32:06.402Z,12.05
2017-12-14T10:33:06.331Z,12.01
2017-12-14T10:34:06.229Z,11.89
2017-12-14T10:35:06.153Z,11.54
2017-12-14T10:36:06.066Z,11.54
2017-12-14T10:37:05.975Z,11.74
2017-12-14T10:38:05.901Z,11.64
2017-12-14T10:39:05.809Z,11.02
2017-12-14T10:40:05.728Z,11.16
2017-12-14T10:41:05.635Z,11.38
2017-12-14T10:42:05.565Z,11.34
2017-12-14T10:43:05.472Z,11.25
2017-12-14T10:44:05.385Z,11.29
2017-12-14T10:45:05.293Z,11.02
2017-12-14T10:46:05.212Z,10.99
2017-12-14T10:47:05.130Z,11.64
2017-12-14T10:48:05.081Z,11.10
2017-12-14T10:49:04.966Z,11.38
2017-12-14T10:50:04.875Z,11.65
2017-12-14T10:51:04.784Z,11.71
2017-12-14T10:52:04.712Z,11.57
2017-12-14T10:53:04.645Z,11.75
2017-12-14T10:54:04.541Z,11.74
2017-12-14T10:55:04.456Z,11.53
2017-12-14T10:56:04.385Z,10.84
2017-12-14T10:57:04.274Z,10.73
2017-12-14T10:58:04.199Z,10.71
2017-12-14T10:59:04.111Z,11.11
2017-12-14T11:00:04.051Z,11.07
2017-12-14T11:01:03.931Z,11.13
2017-12-14T11:02:03.843Z,11.10
2017-12-14T11:03:03.772Z,11.64
2017-12-14T11:04:03.673Z,11.59
2017-12-14T11:05:03.595Z,11.03
2017-12-14T11:06:03.505Z,10.80
2017-12-14T11:07:03.421Z,10.83
2017-12-14T11:08:03.349Z,10.65
2017-12-14T11:09:03.251Z,10.44
2017-12-14T11:10:03.165Z,10.68
2017-12-14T11:11:03.084Z,10.43
2017-12-14T11:12:02.990Z,10.14
2017-12-14T11:13:02.904Z,10.14
2017-12-14T11:14:02.887Z,10.21
2017-12-14T11:15:02.731Z,10.12
2017-12-14T11:16:02.686Z,10.04
2017-12-14T11:17:02.576Z,9.64
2017-12-14T11:18:02.472Z,9.71
2017-12-14T11:19:02.392Z,9.75
2017-12-14T11:20:02.298Z,9.88
2017-12-14T11:21:02.211Z,9.71
2017-12-14T11:22:02.114Z,9.81
2017-12-14T11:23:02.032Z,9.86
2017-12-14T11:24:01.949Z,9.88
2017-12-14T11:25:01.856Z,9.46
2017-12-14T11:26:01.772Z,9.43
2017-12-14T11:27:01.693Z,9.34
2017-12-14T11:28:01.600Z,9.43
2017-12-14T11:29:01.505Z,9.45
2017-12-14T11:30:01.419Z,9.56
2017-12-14T11:31:01.336Z,9.63
2017-12-14T11:32:01.244Z,9.45
2017-12-14T11:33:01.157Z,9.52
2017-12-14T11:34:01.071Z,9.06
2017-12-14T11:35:00.975Z,8.97
2017-12-14T11:36:00.892Z,9.10
2017-12-14T11:37:00.800Z,9.16
2017-12-14T11:38:00.722Z,8.97
2017-12-14T11:39:00.622Z,9.15
2017-12-14T11:40:01.418Z,9.06
2017-12-14T11:41:00.484Z,9.20
2017-12-14T11:42:00.368Z,9.05
2017-12-14T11:43:00.267Z,9.10
2017-12-14T11:44:00.177Z,9.21
2017-12-14T11:45:00.100Z,9.32
2017-12-14T11:46:00.014Z,9.10
2017-12-14T11:46:59.920Z,9.39
2017-12-14T11:47:59.847Z,9.21
2017-12-14T11:48:59.748Z,8.99
2017-12-14T11:49:59.655Z,8.90
2017-12-14T11:50:59.563Z,8.99
2017-12-14T11:51:59.491Z,9.05
2017-12-14T11:52:59.395Z,9.16
2017-12-14T11:53:59.314Z,9.15
2017-12-14T11:54:59.216Z,9.02
2017-12-14T11:55:59.131Z,8.96
2017-12-14T11:56:59.032Z,8.97
2017-12-14T11:57:58.954Z,8.97
2017-12-14T11:58:58.870Z,8.96
2017-12-14T11:59:58.767Z,8.79
2017-12-14T12:00:58.678Z,8.83
2017-12-14T12:01:58.588Z,8.99
2017-12-14T12:02:58.497Z,8.97
2017-12-14T12:03:58.415Z,9.16
2017-12-14T12:04:58.319Z,9.21
2017-12-14T12:05:58.264Z,9.27
2017-12-14T12:06:58.149Z,8.87
2017-12-14T12:07:58.061Z,8.94
2017-12-14T12:08:57.978Z,8.93
2017-12-14T12:09:57.880Z,9.06
2017-12-14T12:10:57.794Z,9.23
2017-12-14T12:11:57.708Z,9.18
2017-12-14T12:12:57.618Z,9.12
2017-12-14T12:13:57.534Z,9.12
2017-12-14T12:14:57.439Z,9.12
2017-12-14T12:15:57.364Z,8.97
2017-12-14T12:16:57.262Z,8.93
2017-12-14T12:17:57.179Z,8.88
2017-12-14T12:18:57.088Z,8.68
2017-12-14T12:19:57.001Z,8.57
2017-12-14T12:20:56.912Z,8.63
2017-12-14T12:21:56.819Z,8.76
2017-12-14T12:22:56.733Z,8.58
2017-12-14T12:23:56.667Z,8.69
2017-12-14T12:24:56.551Z,8.81
2017-12-14T12:25:56.536Z,8.91
2017-12-14T12:26:56.372Z,8.90
2017-12-14T12:27:56.294Z,8.81
2017-12-14T12:28:56.200Z,8.86
2017-12-14T12:29:56.131Z,8.78
2017-12-14T12:30:56.025Z,8.81
2017-12-14T12:31:55.928Z,8.79
2017-12-14T12:32:55.841Z,8.81
2017-12-14T12:33:55.756Z,8.81
2017-12-14T12:34:55.682Z,8.79
2017-12-14T12:35:55.584Z,8.93
2017-12-14T12:36:55.490Z,8.84
2017-12-14T12:37:55.410Z,8.83
2017-12-14T12:38:55.983Z,8.78
2017-12-14T12:39:55.223Z,8.88
2017-12-14T12:40:55.150Z,8.93
2017-12-14T12:41:55.045Z,8.96
2017-12-14T12:42:54.955Z,8.96
2017-12-14T12:43:54.862Z,8.81
2017-12-14T12:44:54.780Z,8.91
2017-12-14T12:45:54.689Z,8.96
2017-12-14T12:46:54.597Z,8.96
2017-12-14T12:47:54.516Z,8.93
2017-12-14T12:48:54.423Z,8.72
2017-12-14T12:49:54.346Z,8.81
2017-12-14T12:50:54.246Z,8.83
2017-12-14T12:51:54.153Z,8.96
2017-12-14T12:52:54.071Z,8.79
2017-12-14T12:53:53.984Z,8.78
2017-12-14T12:54:53.892Z,8.75
2017-12-14T12:55:53.838Z,8.79
2017-12-14T12:56:53.719Z,8.78
2017-12-14T12:57:53.631Z,8.94
2017-12-14T12:58:53.539Z,8.94
2017-12-14T12:59:53.448Z,8.79
2017-12-14T13:00:53.370Z,8.88
2017-12-14T13:01:53.281Z,8.78
2017-12-14T13:02:53.193Z,8.83
2017-12-14T13:03:53.111Z,8.76
2017-12-14T13:04:53.044Z,8.60
2017-12-14T13:05:52.917Z,8.71
2017-12-14T13:06:52.833Z,8.71
2017-12-14T13:07:52.740Z,8.75
2017-12-14T13:08:52.673Z,8.79
2017-12-14T13:09:52.590Z,8.69
2017-12-14T13:10:52.491Z,8.79
2017-12-14T13:11:52.390Z,8.84
2017-12-14T13:12:52.304Z,8.83
2017-12-14T13:13:52.211Z,8.58